Time;durP1;ratioP1;P1;durP2;ratioP2;P2;SDS_P1;SDS_P2;PMS_P1;PMS_P2;Temp;Humidity;BMP_temperature;BMP_pressure;BME280_temperature;BME280_humidity;BME280_pressure;Samples;Min_cycle;Max_cycle;Signal;HPM_P1;HPM_P2
2023/01/31 00:01:07;;;;;;;39.35;5.20;;;;;;;2.03;100.00;100197.91;5046374;28;20090;-59
2023/01/31 00:03:33;;;;;;;23.60;5.38;;;;;;;2.09;100.00;100204.34;5046681;28;20735;-59
2023/01/31 00:06:07;;;;;;;28.20;4.50;;;;;;;2.15;100.00;100198.41;5033162;28;20033;-59
2023/01/31 00:08:32;;;;;;;26.25;4.72;;;;;;;2.13;100.00;100193.28;5042524;28;20087;-59
2023/01/31 00:10:58;;;;;;;25.92;4.35;;;;;;;2.16;100.00;100181.53;5046343;28;20037;-60
2023/01/31 00:13:23;;;;;;;27.88;5.00;;;;;;;2.20;100.00;100189.97;5041273;28;20024;-59
2023/01/31 00:15:54;;;;;;;20.58;3.88;;;;;;;2.21;100.00;100186.34;5040622;28;20040;-59
2023/01/31 00:18:20;;;;;;;22.73;5.28;;;;;;;2.30;100.00;100188.84;5076817;28;20044;-59
2023/01/31 00:20:45;;;;;;;28.02;4.93;;;;;;;2.26;100.00;100184.84;5041034;28;20048;-59
2023/01/31 00:23:10;;;;;;;41.83;4.82;;;;;;;2.22;100.00;100190.63;5035671;28;20519;-59
2023/01/31 00:25:36;;;;;;;27.58;4.15;;;;;;;2.23;100.00;100190.47;5041503;28;20482;-59
2023/01/31 00:28:01;;;;;;;22.27;4.47;;;;;;;2.23;100.00;100195.78;5041401;28;20021;-59
2023/01/31 00:30:27;;;;;;;28.00;4.40;;;;;;;2.25;100.00;100201.72;5038466;28;20025;-60
2023/01/31 00:32:52;;;;;;;31.10;4.22;;;;;;;2.28;100.00;100204.03;5035806;28;20033;-59
2023/01/31 00:35:17;;;;;;;24.90;4.78;;;;;;;2.28;100.00;100209.31;5035778;28;20495;-59
2023/01/31 00:37:43;;;;;;;26.10;4.43;;;;;;;2.25;100.00;100208.84;5037731;28;20100;-59
2023/01/31 00:40:09;;;;;;;32.40;4.55;;;;;;;2.19;100.00;100205.00;5037395;28;20041;-59
2023/01/31 00:42:34;;;;;;;24.48;3.95;;;;;;;2.29;100.00;100204.84;5038396;28;20013;-59
2023/01/31 00:45:00;;;;;;;27.23;4.90;;;;;;;2.28;100.00;100209.31;5036383;28;20029;-59
2023/01/31 00:47:25;;;;;;;25.08;4.32;;;;;;;2.29;100.00;100213.63;5038911;28;20391;-59
2023/01/31 00:49:50;;;;;;;25.50;5.07;;;;;;;2.32;100.00;100221.25;5039527;28;20021;-59
2023/01/31 00:52:16;;;;;;;26.40;4.72;;;;;;;2.26;100.00;100216.59;5044844;28;20036;-59
2023/01/31 00:54:41;;;;;;;35.10;5.38;;;;;;;2.21;100.00;100218.91;5043612;28;20021;-59
2023/01/31 00:57:07;;;;;;;30.73;5.45;;;;;;;2.24;100.00;100217.75;5053756;28;20395;-59
2023/01/31 00:59:32;;;;;;;29.58;4.93;;;;;;;2.18;100.00;100207.84;5043982;28;20033;-59
2023/01/31 01:01:58;;;;;;;29.48;4.97;;;;;;;2.13;100.00;100211.78;5045242;28;20029;-59
2023/01/31 01:04:23;;;;;;;28.13;4.47;;;;;;;2.18;100.00;100219.25;5043328;28;20040;-59
2023/01/31 01:06:49;;;;;;;28.55;4.55;;;;;;;2.21;100.00;100218.91;5041239;28;20041;-59
2023/01/31 01:09:15;;;;;;;30.83;4.75;;;;;;;2.23;100.00;100219.56;5047831;28;20052;-59
2023/01/31 01:11:41;;;;;;;23.88;4.28;;;;;;;2.22;100.00;100214.44;5045485;28;20360;-59
2023/01/31 01:14:08;;;;;;;35.95;5.85;;;;;;;2.23;100.00;100213.47;5030926;28;20033;-59
2023/01/31 01:16:37;;;;;;;38.05;4.65;;;;;;;2.29;100.00;100208.31;5051094;28;20083;-58
2023/01/31 01:19:12;;;;;;;33.88;4.85;;;;;;;2.35;100.00;100209.50;5047369;28;20029;-58
2023/01/31 01:21:39;;;;;;;24.23;4.20;;;;;;;2.41;100.00;100210.66;5037393;28;20116;-58
2023/01/31 01:24:05;;;;;;;22.73;5.00;;;;;;;2.45;100.00;100215.47;5034344;28;20073;-58
2023/01/31 01:26:31;;;;;;;28.90;5.30;;;;;;;2.38;100.00;100215.28;5043452;28;20032;-58
2023/01/31 01:28:57;;;;;;;31.00;4.55;;;;;;;2.36;100.00;100214.63;5040823;28;20037;-58
2023/01/31 01:31:28;;;;;;;25.40;4.38;;;;;;;2.35;100.00;100214.81;5041091;28;20037;-58
2023/01/31 01:33:54;;;;;;;22.83;4.18;;;;;;;2.40;100.00;100206.34;5038417;28;20029;-58
2023/01/31 01:36:20;;;;;;;18.05;3.85;;;;;;;2.34;100.00;100219.25;5040354;28;20078;-58
2023/01/31 01:38:46;;;;;;;17.50;3.58;;;;;;;2.28;100.00;100217.28;5053106;28;20131;-58
2023/01/31 01:41:12;;;;;;;29.35;5.22;;;;;;;2.26;100.00;100216.59;5047538;28;20025;-58
2023/01/31 01:43:54;;;;;;;24.75;4.65;;;;;;;2.20;100.00;100216.41;5042290;28;20468;-58
2023/01/31 01:46:28;;;;;;;30.25;4.65;;;;;;;2.19;100.00;100215.59;5040714;28;20497;-58
2023/01/31 01:48:59;;;;;;;25.08;4.13;;;;;;;2.13;100.00;100216.25;5047409;28;20024;-58
2023/01/31 01:51:24;;;;;;;18.23;4.38;;;;;;;2.03;100.00;100211.13;5034405;28;20048;-58
2023/01/31 01:53:52;;;;;;;27.13;5.70;;;;;;;2.07;100.00;100203.69;5045959;28;20021;-58
2023/01/31 01:56:23;;;;;;;30.00;4.20;;;;;;;2.00;100.00;100194.75;5045903;28;20069;-58
2023/01/31 01:59:00;;;;;;;31.58;4.53;;;;;;;2.03;100.00;100197.09;5026299;28;20443;-58
2023/01/31 02:01:27;;;;;;;21.00;4.38;;;;;;;1.87;100.00;100206.66;5044617;28;20051;-58
2023/01/31 02:03:53;;;;;;;31.75;5.18;;;;;;;1.85;100.00;100203.34;5042213;28;20029;-58
2023/01/31 02:06:18;;;;;;;23.45;4.10;;;;;;;1.79;100.00;100203.13;5042290;28;20063;-58
2023/01/31 02:08:44;;;;;;;36.80;5.30;;;;;;;1.75;100.00;100202.66;5036188;28;20046;-57
2023/01/31 02:11:19;;;;;;;21.63;4.47;;;;;;;1.70;100.00;100210.22;5039937;28;20021;-58
2023/01/31 02:13:45;;;;;;;24.55;4.55;;;;;;;1.64;100.00;100210.84;5050137;28;20457;-58
2023/01/31 02:16:11;;;;;;;24.00;4.30;;;;;;;1.58;100.00;100214.16;5041420;28;20172;-58
2023/01/31 02:18:36;;;;;;;25.55;4.47;;;;;;;1.57;100.00;100209.84;5044256;28;20029;-58
2023/01/31 02:21:07;;;;;;;23.85;4.72;;;;;;;1.57;100.00;100207.19;5043086;28;20373;-58
2023/01/31 02:23:54;;;;;;;19.73;4.00;;;;;;;1.52;100.00;100202.38;5051529;28;20040;-58
2023/01/31 02:26:48;;;;;;;28.85;4.32;;;;;;;1.47;100.00;100212.59;5035143;28;20044;-58
2023/01/31 02:29:32;;;;;;;20.75;4.40;;;;;;;1.41;100.00;100216.72;5043673;28;20028;-58
2023/01/31 02:32:31;;;;;;;30.50;3.90;;;;;;;1.25;100.00;100206.91;5032389;28;20103;-58
2023/01/31 02:35:26;;;;;;;18.50;3.90;;;;;;;0.74;100.00;100207.78;5034364;28;20041;-58
2023/01/31 02:38:04;;;;;;;24.92;5.07;;;;;;;0.26;100.00;100198.53;5023456;28;20036;-58
2023/01/31 02:40:51;;;;;;;28.40;5.55;;;;;;;0.03;100.00;100209.53;5040330;28;20025;-57
2023/01/31 02:44:58;;;;;;;26.90;4.13;;;;;;;-0.02;100.00;100209.97;5044666;28;20056;-58
2023/01/31 02:46:46;;;;;;;16.23;3.42;;;;;;;-0.10;100.00;100204.63;5037059;28;20046;-58
2023/01/31 02:49:33;;;;;;;20.85;4.13;;;;;;;-0.11;100.00;100208.22;5033383;28;20091;-57
2023/01/31 02:52:17;;;;;;;11.30;2.45;;;;;;;-0.08;100.00;100215.00;5034769;28;20039;-58
2023/01/31 02:57:38;;;;;;;24.80;6.22;;;;;;;-0.08;100.00;100220.25;5035494;28;20124;-57
2023/01/31 03:00:05;;;;;;;13.15;4.20;;;;;;;-0.02;100.00;100228.41;5037442;28;20116;-58
2023/01/31 03:02:31;;;;;;;23.63;4.43;;;;;;;0.05;100.00;100227.81;5036292;28;20020;-58
2023/01/31 03:04:56;;;;;;;22.70;4.05;;;;;;;0.14;100.00;100222.47;5041212;28;20047;-58
2023/01/31 03:07:25;;;;;;;21.83;4.72;;;;;;;0.12;100.00;100213.88;5033821;28;20032;-58
2023/01/31 03:10:15;;;;;;;21.88;5.35;;;;;;;0.04;100.00;100216.44;5043252;28;20165;-58
2023/01/31 03:13:00;;;;;;;15.13;4.57;;;;;;;-0.03;100.00;100226.75;5036991;28;20124;-57
2023/01/31 03:18:55;;;;;;;20.50;4.93;;;;;;;-0.18;100.00;100228.22;5038008;28;20034;-58
2023/01/31 03:21:31;;;;;;;19.10;4.57;;;;;;;-0.18;100.00;100230.03;5045331;28;20048;-58
2023/01/31 03:23:57;;;;;;;17.80;4.57;;;;;;;-0.28;100.00;100225.66;5047390;28;20034;-58
2023/01/31 03:26:23;;;;;;;24.38;5.18;;;;;;;-0.33;100.00;100225.28;5016886;28;20025;-58
2023/01/31 03:28:53;;;;;;;20.25;4.15;;;;;;;-0.36;100.00;100233.47;5015687;28;20022;-58
2023/01/31 03:31:20;;;;;;;27.33;5.20;;;;;;;-0.37;100.00;100245.00;5059567;28;20447;-58
2023/01/31 03:33:48;;;;;;;24.02;5.95;;;;;;;-0.37;100.00;100229.19;5038707;28;20482;-57
2023/01/31 03:36:13;;;;;;;27.30;5.72;;;;;;;-0.39;100.00;100236.41;5019463;28;20567;-58
2023/01/31 03:39:03;;;;;;;26.38;5.15;;;;;;;-0.33;100.00;100230.53;5032200;28;20108;-58
2023/01/31 03:41:39;;;;;;;18.42;4.90;;;;;;;-0.28;100.00;100222.19;5040505;28;20018;-58
2023/01/31 03:44:07;;;;;;;16.23;3.10;;;;;;;-0.22;100.00;100235.63;5034710;28;20663;-58
2023/01/31 03:46:42;;;;;;;26.45;5.18;;;;;;;-0.23;100.00;100227.84;5046462;28;20040;-60
2023/01/31 03:49:09;;;;;;;25.67;5.55;;;;;;;-0.17;100.00;100229.09;5025283;28;20075;-57
2023/01/31 03:51:35;;;;;;;28.75;5.28;;;;;;;-0.24;100.00;100229.66;5038331;28;20475;-59
2023/01/31 03:54:07;;;;;;;32.00;4.82;;;;;;;-0.28;100.00;100212.47;5034134;28;20026;-59
2023/01/31 03:56:46;;;;;;;29.75;5.53;;;;;;;-0.31;100.00;100214.59;5029013;28;20424;-60
2023/01/31 03:59:17;;;;;;;15.95;4.47;;;;;;;-0.37;100.00;100209.94;5033364;28;20025;-59
2023/01/31 04:01:47;;;;;;;18.30;4.45;;;;;;;-0.34;100.00;100212.25;5035967;28;20033;-59
2023/01/31 04:04:19;;;;;;;23.05;4.75;;;;;;;-0.36;100.00;100209.78;5040330;28;20124;-59
2023/01/31 04:06:44;;;;;;;35.58;6.78;;;;;;;-0.38;100.00;100203.81;5024701;28;20025;-60
2023/01/31 04:09:10;;;;;;;20.33;4.97;;;;;;;-0.46;100.00;100203.72;5041528;28;20052;-60
2023/01/31 04:11:37;;;;;;;33.63;6.40;;;;;;;-0.50;100.00;100192.66;5037497;28;20044;-59
2023/01/31 04:14:02;;;;;;;27.25;5.32;;;;;;;-0.42;100.00;100194.56;5037351;28;20017;-59
2023/01/31 04:16:28;;;;;;;25.65;6.38;;;;;;;-0.35;100.00;100200.06;5041419;28;20087;-59
2023/01/31 04:18:55;;;;;;;33.30;5.35;;;;;;;-0.40;100.00;100197.88;5037750;28;20078;-59
2023/01/31 04:21:21;;;;;;;40.63;6.00;;;;;;;-0.44;100.00;100201.78;5039279;28;20347;-59
2023/01/31 04:23:46;;;;;;;27.27;5.13;;;;;;;-0.50;100.00;100192.66;5039224;28;20033;-58
2023/01/31 04:26:11;;;;;;;20.65;5.50;;;;;;;-0.52;100.00;100199.06;5043413;28;20040;-58
2023/01/31 04:28:37;;;;;;;23.80;5.50;;;;;;;-0.56;100.00;100197.69;5045557;28;20032;-58
2023/01/31 04:31:02;;;;;;;24.13;5.72;;;;;;;-0.56;100.00;100192.41;5048132;28;20029;-59
2023/01/31 04:33:28;;;;;;;35.58;5.38;;;;;;;-0.55;100.00;100199.34;5043814;28;20036;-58
2023/01/31 04:35:53;;;;;;;29.50;4.75;;;;;;;-0.64;100.00;100200.22;5051578;28;20028;-58
2023/01/31 04:38:18;;;;;;;18.25;4.80;;;;;;;-0.72;100.00;100209.69;5045836;28;20435;-58
2023/01/31 04:40:44;;;;;;;28.63;5.03;;;;;;;-0.68;100.00;100210.22;5042618;28;20037;-58
2023/01/31 04:43:09;;;;;;;21.75;5.30;;;;;;;-0.74;100.00;100209.00;5048154;28;20148;-58
2023/01/31 04:45:35;;;;;;;21.73;4.78;;;;;;;-0.69;100.00;100201.50;5045658;28;20477;-58
2023/01/31 04:48:00;;;;;;;28.20;6.18;;;;;;;-0.71;100.00;100199.97;5047106;28;20048;-58
2023/01/31 04:50:26;;;;;;;21.00;4.25;;;;;;;-0.61;100.00;100192.84;5044213;28;20032;-59
2023/01/31 04:52:51;;;;;;;29.92;6.47;;;;;;;-0.74;100.00;100205.53;5045238;28;20102;-58
2023/01/31 04:55:17;;;;;;;29.55;6.80;;;;;;;-0.83;100.00;100191.44;5044977;28;20037;-59
2023/01/31 04:57:42;;;;;;;24.50;6.18;;;;;;;-0.89;100.00;100192.03;5049419;28;20087;-60
2023/01/31 05:00:08;;;;;;;38.15;6.63;;;;;;;-0.88;100.00;100198.94;5047510;28;20383;-58
2023/01/31 05:02:34;;;;;;;26.92;5.93;;;;;;;-0.81;100.00;100194.75;5044664;28;20029;-58
2023/01/31 05:05:00;;;;;;;36.22;7.15;;;;;;;-0.85;100.00;100182.84;5041652;28;20029;-58
2023/01/31 05:07:25;;;;;;;35.80;6.80;;;;;;;-0.95;100.00;100182.06;5053542;28;20460;-58
2023/01/31 05:09:51;;;;;;;28.02;7.28;;;;;;;-0.96;100.00;100175.16;5050460;28;20040;-57
2023/01/31 05:12:16;;;;;;;16.02;4.22;;;;;;;-0.96;100.00;100190.94;5040676;28;20046;-60
2023/01/31 05:14:42;;;;;;;32.42;5.45;;;;;;;-0.97;100.00;100190.13;5044879;28;20029;-58
2023/01/31 05:17:07;;;;;;;20.88;6.03;;;;;;;-0.88;100.00;100188.41;5045020;28;20041;-60
2023/01/31 05:19:33;;;;;;;22.63;5.70;;;;;;;-0.87;100.00;100177.75;5045877;28;20025;-58
2023/01/31 05:21:58;;;;;;;26.00;7.32;;;;;;;-0.83;100.00;100170.38;5043546;28;20033;-59
2023/01/31 05:24:27;;;;;;;11.07;5.18;;;;;;;-0.74;100.00;100158.97;5048438;28;20036;-57
2023/01/31 05:26:57;;;;;;;42.70;8.55;;;;;;;-0.79;100.00;100160.41;5047525;28;20040;-57
2023/01/31 05:29:31;;;;;;;33.63;9.90;;;;;;;-0.79;100.00;100157.75;5041147;28;20033;-60
2023/01/31 05:31:58;;;;;;;25.25;7.40;;;;;;;-0.78;100.00;100160.22;5043121;28;20314;-57
2023/01/31 05:34:24;;;;;;;19.42;7.00;;;;;;;-0.85;100.00;100161.78;5040858;28;20464;-58
2023/01/31 05:36:53;;;;;;;35.00;9.73;;;;;;;-0.90;100.00;100169.28;5037778;28;20021;-58
2023/01/31 05:39:19;;;;;;;40.35;9.57;;;;;;;-0.83;100.00;100164.28;5041679;28;20034;-58
2023/01/31 05:41:44;;;;;;;37.65;8.93;;;;;;;-0.92;100.00;100166.00;5052117;28;20021;-58
2023/01/31 05:44:10;;;;;;;21.45;6.97;;;;;;;-0.91;100.00;100159.75;5043333;28;21305;-58
2023/01/31 05:46:36;;;;;;;33.40;7.22;;;;;;;-0.87;100.00;100166.41;5036940;28;20569;-58
2023/01/31 05:49:01;;;;;;;37.97;9.20;;;;;;;-0.90;100.00;100174.56;5040865;28;20160;-58
2023/01/31 05:51:27;;;;;;;38.78;10.48;;;;;;;-0.88;100.00;100167.34;5040368;28;20032;-58
2023/01/31 05:53:53;;;;;;;41.67;11.27;;;;;;;-0.87;100.00;100158.50;5034138;28;20111;-58
2023/01/31 05:56:19;;;;;;;21.73;6.55;;;;;;;-0.80;100.00;100154.31;5041338;28;20031;-58
2023/01/31 05:58:49;;;;;;;44.33;12.23;;;;;;;-0.75;100.00;100170.50;5035423;28;20029;-59
2023/01/31 06:01:20;;;;;;;36.75;10.65;;;;;;;-0.75;100.00;100153.84;5052118;28;20021;-59
2023/01/31 06:03:46;;;;;;;23.42;7.82;;;;;;;-0.80;100.00;100159.56;5041152;28;20044;-59
2023/01/31 06:06:11;;;;;;;39.30;9.25;;;;;;;-0.81;100.00;100157.06;5036356;28;20025;-60
2023/01/31 06:08:37;;;;;;;46.03;10.60;;;;;;;-0.78;100.00;100162.88;5040578;28;20383;-59
2023/01/31 06:11:03;;;;;;;36.47;8.80;;;;;;;-0.84;100.00;100158.19;5050865;28;20018;-60
2023/01/31 06:13:32;;;;;;;27.40;8.90;;;;;;;-0.85;100.00;100161.78;5038685;28;20028;-59
2023/01/31 06:15:57;;;;;;;45.33;9.20;;;;;;;-0.91;100.00;100157.13;5042082;28;20079;-59
2023/01/31 06:18:23;;;;;;;21.73;6.65;;;;;;;-0.88;100.00;100156.81;5049357;28;20032;-58
2023/01/31 06:20:49;;;;;;;42.05;9.68;;;;;;;-0.88;100.00;100155.00;5044244;28;20063;-58
2023/01/31 06:23:14;;;;;;;55.58;11.50;;;;;;;-0.91;100.00;100162.38;5046705;28;20022;-58
2023/01/31 06:25:40;;;;;;;43.67;10.68;;;;;;;-0.91;100.00;100163.19;5050002;28;20039;-59
2023/01/31 06:28:05;;;;;;;45.45;10.25;;;;;;;-0.86;100.00;100165.41;5041772;28;20204;-58
2023/01/31 06:30:31;;;;;;;74.90;8.52;;;;;;;-0.79;100.00;100150.69;5039304;28;20043;-58
2023/01/31 06:32:58;;;;;;;46.15;10.40;;;;;;;-0.77;100.00;100158.44;5049439;28;20060;-59
2023/01/31 06:35:24;;;;;;;35.92;10.48;;;;;;;-0.71;100.00;100158.69;5045027;28;20025;-58
2023/01/31 06:37:49;;;;;;;46.25;11.05;;;;;;;-0.70;100.00;100159.50;5034629;28;20506;-58
2023/01/31 06:40:15;;;;;;;40.78;11.73;;;;;;;-0.64;100.00;100161.56;5045748;28;20168;-59
2023/01/31 06:42:40;;;;;;;41.65;11.18;;;;;;;-0.54;100.00;100161.50;5041274;28;20409;-59
2023/01/31 06:45:06;;;;;;;39.25;11.32;;;;;;;-0.52;100.00;100168.28;5043548;28;20029;-59
2023/01/31 06:47:31;;;;;;;37.13;8.27;;;;;;;-0.43;100.00;100163.91;5044803;28;20032;-59
2023/01/31 06:49:57;;;;;;;40.88;10.70;;;;;;;-0.37;100.00;100160.72;5040229;28;20087;-59
2023/01/31 06:52:22;;;;;;;51.28;11.65;;;;;;;-0.32;100.00;100153.19;5049374;28;20082;-59
2023/01/31 06:54:48;;;;;;;39.97;10.20;;;;;;;-0.14;100.00;100149.72;5035750;28;20476;-59
2023/01/31 06:57:13;;;;;;;34.75;9.27;;;;;;;0.21;100.00;100146.22;5057181;28;20475;-59
2023/01/31 06:59:39;;;;;;;40.80;8.80;;;;;;;0.37;100.00;100151.63;5043053;28;20573;-59
2023/01/31 07:02:04;;;;;;;32.80;9.38;;;;;;;0.57;100.00;100162.81;5047246;28;20032;-58
2023/01/31 07:04:29;;;;;;;44.33;11.30;;;;;;;0.46;100.00;100163.06;5044493;28;20032;-59
2023/01/31 07:06:56;;;;;;;32.60;9.52;;;;;;;0.35;100.00;100158.88;5032537;28;20021;-58
2023/01/31 07:09:21;;;;;;;43.90;10.00;;;;;;;0.23;100.00;100151.38;5043592;28;20056;-59
2023/01/31 07:11:47;;;;;;;35.92;8.40;;;;;;;0.25;100.00;100149.38;5042772;28;20032;-58
2023/01/31 07:14:12;;;;;;;30.63;8.30;;;;;;;0.28;100.00;100157.84;5039947;28;20329;-58
2023/01/31 07:16:38;;;;;;;55.13;9.68;;;;;;;0.48;100.00;100153.19;5046623;28;20032;-59
2023/01/31 07:19:03;;;;;;;39.60;9.73;;;;;;;0.74;100.00;100149.72;5041148;28;20036;-59
2023/01/31 07:21:29;;;;;;;52.20;8.48;;;;;;;0.51;100.00;100144.97;5050073;28;20021;-59
2023/01/31 07:23:54;;;;;;;42.72;10.38;;;;;;;0.34;100.00;100137.91;5044155;28;20060;-58
2023/01/31 07:26:19;;;;;;;47.30;9.88;;;;;;;0.10;100.00;100134.13;5068624;28;20021;-59
2023/01/31 07:28:45;;;;;;;41.45;8.20;;;;;;;0.06;100.00;100145.94;5037437;28;20057;-59
2023/01/31 07:31:11;;;;;;;24.45;7.20;;;;;;;0.10;100.00;100139.41;5041069;28;20031;-59
2023/01/31 07:33:37;;;;;;;43.03;10.25;;;;;;;-0.08;100.00;100146.47;5037684;28;20036;-58
2023/01/31 07:36:03;;;;;;;36.92;11.27;;;;;;;-0.06;100.00;100145.34;5038291;28;20434;-58
2023/01/31 07:38:31;;;;;;;42.45;10.68;;;;;;;-0.10;100.00;100145.78;5041749;28;20028;-58
2023/01/31 07:41:02;;;;;;;53.47;12.30;;;;;;;-0.16;100.00;100146.41;5046933;28;20048;-60
2023/01/31 07:43:28;;;;;;;45.95;11.02;;;;;;;-0.09;100.00;100144.84;5038620;28;20024;-59
2023/01/31 07:45:53;;;;;;;44.58;11.77;;;;;;;-0.05;100.00;100148.81;5040762;28;20022;-59
2023/01/31 07:48:22;;;;;;;45.83;11.27;;;;;;;0.09;100.00;100158.00;5046911;28;20429;-59
2023/01/31 07:50:49;;;;;;;34.47;10.00;;;;;;;-0.09;100.00;100147.47;5043806;28;20032;-59
2023/01/31 07:53:15;;;;;;;49.78;10.80;;;;;;;-0.10;100.00;100148.44;5039788;28;20468;-59
2023/01/31 07:55:40;;;;;;;44.33;12.18;;;;;;;-0.20;100.00;100161.69;5038789;28;20108;-59
2023/01/31 07:58:06;;;;;;;38.42;11.27;;;;;;;-0.20;100.00;100166.13;5037720;28;20044;-59
2023/01/31 08:03:32;;;;;;;39.90;10.73;;;;;;;0.09;100.00;100158.81;5053447;28;20115;-59
2023/01/31 08:06:00;;;;;;;46.35;9.95;;;;;;;0.48;100.00;100161.09;5043268;28;20039;-58
2023/01/31 08:08:26;;;;;;;45.60;12.05;;;;;;;0.78;100.00;100167.72;5045884;28;20478;-59
2023/01/31 08:10:51;;;;;;;31.02;10.75;;;;;;;1.03;100.00;100167.88;5040174;28;20028;-59
2023/01/31 08:13:17;;;;;;;30.50;8.88;;;;;;;1.27;100.00;100162.69;5037428;28;20364;-59
2023/01/31 08:15:42;;;;;;;32.97;9.68;;;;;;;1.38;100.00;100158.94;5045692;28;20025;-60
2023/01/31 08:18:08;;;;;;;21.25;9.93;;;;;;;1.57;100.00;100168.38;5053739;28;20028;-59
2023/01/31 08:20:36;;;;;;;29.75;9.05;;;;;;;1.57;100.00;100170.19;5047887;28;20040;-59
2023/01/31 08:23:02;;;;;;;24.52;7.78;;;;;;;1.57;100.00;100168.38;5036989;28;20095;-58
2023/01/31 08:25:30;;;;;;;25.23;7.95;;;;;;;1.81;100.00;100162.34;5045588;28;20483;-58
2023/01/31 08:27:56;;;;;;;41.83;12.63;;;;;;;1.74;100.00;100163.97;5046726;28;20064;-59
2023/01/31 08:30:22;;;;;;;36.78;9.57;;;;;;;1.24;100.00;100155.06;5032454;28;20056;-59
2023/01/31 08:32:47;;;;;;;31.80;11.50;;;;;;;1.43;100.00;100167.19;5036485;28;20249;-59
2023/01/31 08:35:13;;;;;;;36.60;11.27;;;;;;;1.34;100.00;100154.13;5047655;28;20032;-59
2023/01/31 08:37:38;;;;;;;33.38;12.10;;;;;;;1.38;100.00;100153.66;5035765;28;20053;-59
2023/01/31 08:40:04;;;;;;;31.77;9.57;;;;;;;1.60;100.00;100154.88;5041261;28;20051;-59
2023/01/31 08:42:30;;;;;;;40.10;12.65;;;;;;;1.38;100.00;100158.94;5048982;28;20044;-59
2023/01/31 08:45:01;;;;;;;37.92;11.25;;;;;;;1.29;100.00;100158.06;5043477;28;20420;-58
2023/01/31 08:47:26;;;;;;;53.47;12.43;;;;;;;1.20;100.00;100140.56;5042398;28;20020;-59
2023/01/31 08:49:51;;;;;;;38.30;13.10;;;;;;;1.28;100.00;100148.50;5035991;28;20421;-59
2023/01/31 08:52:17;;;;;;;47.15;12.23;;;;;;;1.62;100.00;100150.25;5038923;28;20547;-59
2023/01/31 08:54:43;;;;;;;43.33;12.90;;;;;;;1.54;100.00;100159.97;5039366;28;20036;-59
2023/01/31 08:57:09;;;;;;;26.35;8.15;;;;;;;0.86;100.00;100159.03;5037094;28;20021;-59
2023/01/31 08:59:35;;;;;;;39.58;11.40;;;;;;;0.91;100.00;100161.19;5045711;28;20028;-59
2023/01/31 09:02:01;;;;;;;32.10;10.30;;;;;;;0.75;100.00;100159.28;5042590;28;20018;-59
2023/01/31 09:04:26;;;;;;;24.40;9.02;;;;;;;0.62;100.00;100152.63;5043216;28;20041;-59
2023/01/31 09:06:53;;;;;;;44.10;12.00;;;;;;;0.64;100.00;100163.03;5037669;28;20118;-59
2023/01/31 09:09:19;;;;;;;33.03;10.63;;;;;;;0.61;100.00;100164.16;5044503;28;20052;-59
2023/01/31 09:11:44;;;;;;;32.00;10.43;;;;;;;0.61;100.00;100164.16;5049055;28;20032;-58
2023/01/31 09:14:09;;;;;;;32.20;10.18;;;;;;;0.57;100.00;100149.59;5050511;28;20037;-59
2023/01/31 09:16:35;;;;;;;37.72;12.20;;;;;;;0.69;100.00;100146.72;5035058;28;20435;-59
2023/01/31 09:19:00;;;;;;;50.20;12.88;;;;;;;0.77;100.00;100138.84;5047030;28;20033;-59
2023/01/31 09:21:26;;;;;;;37.72;13.40;;;;;;;0.90;100.00;100148.97;5049837;28;20036;-59
2023/01/31 09:23:56;;;;;;;34.35;10.98;;;;;;;0.91;100.00;100145.38;5043193;28;20144;-59
2023/01/31 09:26:21;;;;;;;38.00;13.10;;;;;;;0.84;100.00;100158.34;5044312;28;20647;-59
2023/01/31 09:28:49;;;;;;;38.13;13.10;;;;;;;0.92;100.00;100154.94;5041132;28;20041;-59
2023/01/31 09:31:16;;;;;;;36.03;11.95;;;;;;;0.87;100.00;100160.66;5037235;28;20655;-59
2023/01/31 09:33:41;;;;;;;36.67;12.15;;;;;;;1.01;100.00;100157.44;5047487;28;20078;-59
2023/01/31 09:36:12;;;;;;;31.00;10.35;;;;;;;0.97;100.00;100160.56;5043429;28;20468;-59
2023/01/31 09:38:37;;;;;;;;;;;;;;;1.06;100.00;100164.91;5037224;28;20225;-58
2023/01/31 09:41:24;;;;;;;39.30;12.30;;;;;;;1.12;100.00;100163.44;5043111;28;20342;-59
2023/01/31 09:43:53;;;;;;;35.83;11.90;;;;;;;1.08;100.00;100152.38;5035121;28;20080;-59
2023/01/31 09:46:19;;;;;;;35.38;11.80;;;;;;;1.14;100.00;100151.72;5030995;28;20078;-59
2023/01/31 09:48:47;;;;;;;28.52;10.52;;;;;;;1.21;100.00;100151.94;5043263;28;20016;-59
2023/01/31 09:51:12;;;;;;;35.65;14.50;;;;;;;1.30;100.00;100156.28;5045920;28;20044;-59
2023/01/31 09:53:38;;;;;;;40.03;11.55;;;;;;;1.33;100.00;100169.16;5038156;28;20025;-59
2023/01/31 09:56:35;;;;;;;35.72;11.57;;;;;;;1.33;100.00;100171.78;5043879;28;20033;-59
2023/01/31 09:59:12;;;;;;;42.22;11.98;;;;;;;1.34;100.00;100172.63;5005462;28;20037;-59
2023/01/31 10:01:48;;;;;;;36.88;13.27;;;;;;;1.32;100.00;100180.69;5045405;28;20040;-59
2023/01/31 10:04:32;;;;;;;47.42;12.38;;;;;;;1.30;100.00;100182.69;5069211;28;20077;-59
2023/01/31 10:07:02;;;;;;;31.60;11.57;;;;;;;1.42;100.00;100175.28;5039157;28;20035;-59
2023/01/31 10:09:36;;;;;;;37.47;11.85;;;;;;;1.34;100.00;100168.16;5043791;28;20044;-59
2023/01/31 10:12:18;;;;;;;35.25;13.13;;;;;;;1.21;100.00;100141.38;5030803;28;20039;-59
2023/01/31 10:15:01;;;;;;;42.97;12.98;;;;;;;1.29;100.00;100136.09;5039156;28;20060;-59
2023/01/31 10:17:30;;;;;;;44.97;13.93;;;;;;;1.32;100.00;100142.88;5043699;28;20059;-58
2023/01/31 10:20:02;;;;;;;30.98;9.88;;;;;;;1.36;100.00;100152.16;5070738;28;20036;-59
2023/01/31 10:22:33;;;;;;;48.05;14.73;;;;;;;1.53;100.00;100150.41;5083172;28;20063;-58
2023/01/31 10:25:03;;;;;;;46.17;14.77;;;;;;;1.53;100.00;100142.47;5042095;28;20748;-58
2023/01/31 10:27:39;;;;;;;40.17;13.88;;;;;;;1.51;100.00;100138.16;5004547;28;20128;-58
2023/01/31 10:30:05;;;;;;;46.60;15.77;;;;;;;1.33;100.00;100129.53;5043825;28;20036;-58
2023/01/31 10:32:34;;;;;;;89.07;26.98;;;;;;;1.41;100.00;100126.09;5040154;28;20780;-59
2023/01/31 10:35:02;;;;;;;69.00;16.80;;;;;;;1.27;100.00;100119.59;5045405;28;20028;-59
2023/01/31 10:37:49;;;;;;;64.97;19.55;;;;;;;1.19;100.00;100109.00;5031431;28;20388;-58
2023/01/31 10:40:20;;;;;;;59.17;17.70;;;;;;;1.17;100.00;100109.16;5045132;28;20488;-58
2023/01/31 10:42:51;;;;;;;67.47;19.85;;;;;;;1.21;100.00;100093.84;5026805;28;20049;-59
2023/01/31 10:45:21;;;;;;;64.22;18.50;;;;;;;1.16;100.00;100111.97;5034300;28;20028;-59
2023/01/31 10:47:51;;;;;;;56.50;18.40;;;;;;;1.07;100.00;100100.53;5040447;28;20136;-59
2023/01/31 10:50:28;;;;;;;59.72;18.13;;;;;;;1.06;100.00;100096.25;5042587;28;20094;-60
2023/01/31 10:53:15;;;;;;;66.28;18.27;;;;;;;1.07;100.00;100087.34;5042481;28;20486;-58
2023/01/31 10:56:06;;;;;;;49.53;15.68;;;;;;;1.15;100.00;100083.91;5042594;28;20025;-59
2023/01/31 10:58:32;;;;;;;49.30;17.20;;;;;;;1.26;100.00;100076.50;5042503;28;20094;-59
2023/01/31 11:00:57;;;;;;;66.07;18.23;;;;;;;1.17;100.00;100087.22;5036551;28;20032;-60
2023/01/31 11:03:23;;;;;;;66.10;18.30;;;;;;;1.22;100.00;100079.63;5036403;28;20079;-60
2023/01/31 11:05:53;;;;;;;67.13;19.20;;;;;;;1.18;100.00;100073.84;5042526;28;20029;-60
2023/01/31 11:08:41;;;;;;;66.50;16.92;;;;;;;1.27;100.00;100061.47;5043320;28;20047;-60
2023/01/31 11:11:08;;;;;;;65.78;19.17;;;;;;;1.12;100.00;100048.06;5041267;28;20034;-59
2023/01/31 11:13:35;;;;;;;66.03;19.65;;;;;;;1.31;100.00;100039.06;5047994;28;20102;-59
2023/01/31 11:16:00;;;;;;;58.50;17.48;;;;;;;1.28;100.00;100042.03;5063872;28;21558;-60
2023/01/31 11:18:34;;;;;;;54.58;20.13;;;;;;;1.44;100.00;100047.31;5035061;28;20029;-59
2023/01/31 11:21:00;;;;;;;56.42;14.90;;;;;;;1.38;100.00;100050.63;5040671;28;20039;-59
2023/01/31 11:23:27;;;;;;;53.70;15.38;;;;;;;1.44;100.00;100047.31;5043815;28;20037;-59
2023/01/31 11:25:52;;;;;;;55.70;15.95;;;;;;;1.47;100.00;100041.72;5038632;28;20566;-59
2023/01/31 11:28:23;;;;;;;55.83;17.27;;;;;;;1.37;100.00;100019.91;5042109;28;20041;-59